Time;durP1;ratioP1;P1;durP2;ratioP2;P2;SDS_P1;SDS_P2;PMS_P1;PMS_P2;Temp;Humidity;BMP_temperature;BMP_pressure;BME280_temperature;BME280_humidity;BME280_pressure;Samples;Min_cycle;Max_cycle;Signal;HPM_P1;HPM_P2
2024/03/04 00:01:35;;;;;;;14.32;8.55;;;;;;;;;;4993463;28;20128;-76
2024/03/04 00:04:01;;;;;;;13.20;8.38;;;;;;;;;;4993318;28;20122;-76
2024/03/04 00:06:26;;;;;;;15.30;8.75;;;;;;;;;;4995219;28;20061;-77
2024/03/04 00:08:53;;;;;;;14.55;8.30;;;;;;;;;;4993589;28;20084;-77
2024/03/04 00:11:18;;;;;;;13.13;8.32;;;;;;;;;;4993151;28;20026;-77
2024/03/04 00:13:44;;;;;;;14.75;8.10;;;;;;;;;;4993340;28;20391;-77
2024/03/04 00:16:09;;;;;;;18.33;9.77;;;;;;;;;;4996923;28;20031;-76
2024/03/04 00:18:34;;;;;;;15.88;9.07;;;;;;;;;;4992203;28;20784;-76
2024/03/04 00:20:59;;;;;;;13.82;8.95;;;;;;;;;;4993320;28;20038;-77
2024/03/04 00:23:25;;;;;;;12.48;8.25;;;;;;;;;;4993068;28;20026;-76
2024/03/04 00:25:50;;;;;;;13.90;7.47;;;;;;;;;;4993666;28;20510;-77
2024/03/04 00:28:15;;;;;;;11.30;7.38;;;;;;;;;;4995109;28;20132;-77
2024/03/04 00:30:41;;;;;;;13.57;7.88;;;;;;;;;;4994529;28;20096;-77
2024/03/04 00:33:08;;;;;;;13.43;7.82;;;;;;;;;;4992667;28;20046;-77
2024/03/04 00:35:33;;;;;;;13.60;7.80;;;;;;;;;;4994564;28;20131;-77
2024/03/04 00:37:58;;;;;;;14.13;8.45;;;;;;;;;;4993198;28;20503;-77
2024/03/04 00:40:23;;;;;;;14.73;9.30;;;;;;;;;;4993041;28;20085;-77
2024/03/04 00:42:49;;;;;;;15.60;9.65;;;;;;;;;;4992478;28;20129;-77
2024/03/04 00:45:14;;;;;;;15.60;9.43;;;;;;;;;;4995614;28;20407;-77
2024/03/04 00:47:39;;;;;;;15.80;8.95;;;;;;;;;;4993027;28;20034;-77
2024/03/04 00:50:05;;;;;;;17.20;9.75;;;;;;;;;;4992781;28;20084;-77
2024/03/04 00:52:30;;;;;;;14.55;8.45;;;;;;;;;;4989496;28;20029;-77
2024/03/04 00:54:56;;;;;;;18.15;11.15;;;;;;;;;;4996010;28;20030;-77
2024/03/04 00:57:21;;;;;;;15.50;9.90;;;;;;;;;;4992958;28;20030;-76
2024/03/04 00:59:47;;;;;;;19.95;10.60;;;;;;;;;;4992638;28;20034;-76
2024/03/04 01:02:12;;;;;;;18.60;11.23;;;;;;;;;;4992159;28;20042;-76
2024/03/04 01:04:37;;;;;;;17.27;9.80;;;;;;;;;;4995010;28;20042;-77
2024/03/04 01:07:02;;;;;;;20.15;11.43;;;;;;;;;;4995641;28;20070;-77
2024/03/04 01:09:27;;;;;;;16.17;9.98;;;;;;;;;;4992518;28;20042;-77
2024/03/04 01:11:54;;;;;;;17.02;10.63;;;;;;;;;;4991828;28;20177;-76
2024/03/04 01:14:19;;;;;;;17.95;10.95;;;;;;;;;;4993780;28;20055;-76
2024/03/04 01:16:48;;;;;;;18.30;10.90;;;;;;;;;;4992509;28;20499;-77
2024/03/04 01:19:13;;;;;;;15.80;9.32;;;;;;;;;;4990253;28;20026;-76
2024/03/04 01:21:38;;;;;;;76.47;15.95;;;;;;;;;;4990820;28;20030;-77
2024/03/04 01:24:04;;;;;;;20.00;11.88;;;;;;;;;;4993327;28;20044;-77
2024/03/04 01:26:29;;;;;;;18.35;11.50;;;;;;;;;;4989560;28;20457;-76
2024/03/04 01:28:54;;;;;;;18.70;11.18;;;;;;;;;;4992225;28;20046;-77
2024/03/04 01:31:21;;;;;;;17.35;10.75;;;;;;;;;;4990203;28;20030;-77
2024/03/04 01:33:46;;;;;;;14.25;8.65;;;;;;;;;;4991813;28;20057;-77
2024/03/04 01:36:11;;;;;;;20.05;11.88;;;;;;;;;;4995316;28;20027;-76
2024/03/04 01:38:37;;;;;;;20.17;11.52;;;;;;;;;;4993608;28;20080;-77
2024/03/04 01:41:03;;;;;;;16.05;9.75;;;;;;;;;;4991627;28;20026;-77
2024/03/04 01:43:28;;;;;;;15.13;9.82;;;;;;;;;;4991905;28;20034;-76
2024/03/04 01:45:53;;;;;;;15.32;9.07;;;;;;;;;;4992015;28;20050;-77
2024/03/04 01:48:19;;;;;;;20.33;11.18;;;;;;;;;;4991902;28;20050;-77
2024/03/04 01:50:44;;;;;;;17.58;9.77;;;;;;;;;;4991688;28;20453;-77
2024/03/04 01:53:11;;;;;;;18.33;9.48;;;;;;;;;;4991199;28;20046;-76
2024/03/04 01:55:45;;;;;;;13.75;8.32;;;;;;;;;;4995224;28;20034;-77
2024/03/04 01:58:17;;;;;;;21.27;9.80;;;;;;;;;;4989837;28;20030;-77
2024/03/04 02:00:44;;;;;;;13.05;8.82;;;;;;;;;;4991413;28;20110;-77
2024/03/04 02:03:10;;;;;;;14.27;8.82;;;;;;;;;;4990968;28;20137;-77
2024/03/04 02:05:36;;;;;;;13.52;8.60;;;;;;;;;;4993867;28;20041;-77
2024/03/04 02:08:02;;;;;;;18.33;9.88;;;;;;;;;;4991335;28;20034;-77
2024/03/04 02:10:27;;;;;;;19.48;10.95;;;;;;;;;;4994833;28;20044;-77
2024/03/04 02:12:54;;;;;;;19.10;10.57;;;;;;;;;;4989499;28;20494;-77
2024/03/04 02:15:19;;;;;;;18.35;10.40;;;;;;;;;;4995862;28;20065;-77
2024/03/04 02:17:45;;;;;;;20.02;11.13;;;;;;;;;;4991443;28;20050;-77
2024/03/04 02:20:12;;;;;;;22.08;10.50;;;;;;;;;;4990974;28;20105;-77
2024/03/04 02:22:38;;;;;;;24.00;10.80;;;;;;;;;;4990802;28;20487;-77
2024/03/04 02:25:04;;;;;;;31.73;11.85;;;;;;;;;;4991293;28;20034;-77
2024/03/04 02:27:29;;;;;;;24.73;11.57;;;;;;;;;;4991131;28;20030;-77
2024/03/04 02:29:54;;;;;;;29.38;13.13;;;;;;;;;;4990755;28;20034;-77
2024/03/04 02:32:21;;;;;;;25.30;12.00;;;;;;;;;;4991281;28;20033;-76
2024/03/04 02:34:47;;;;;;;37.13;13.52;;;;;;;;;;4992889;28;20038;-77
2024/03/04 02:37:12;;;;;;;20.63;9.77;;;;;;;;;;4990829;28;20038;-76
2024/03/04 02:39:37;;;;;;;56.67;12.65;;;;;;;;;;4990902;28;20105;-76
2024/03/04 02:42:03;;;;;;;110.57;15.07;;;;;;;;;;4989657;28;20034;-76
2024/03/04 02:44:29;;;;;;;30.73;9.70;;;;;;;;;;4994895;28;20037;-76
2024/03/04 02:46:55;;;;;;;33.08;9.63;;;;;;;;;;4988120;28;20033;-76
2024/03/04 02:49:20;;;;;;;33.60;10.05;;;;;;;;;;4992041;28;20407;-77
2024/03/04 02:51:45;;;;;;;49.22;8.43;;;;;;;;;;4990577;28;20022;-76
2024/03/04 02:54:10;;;;;;;52.05;12.52;;;;;;;;;;4990540;28;20117;-76
2024/03/04 02:56:36;;;;;;;29.70;9.52;;;;;;;;;;4994134;28;20511;-76
2024/03/04 02:59:01;;;;;;;29.00;8.23;;;;;;;;;;4990636;28;20109;-76
2024/03/04 03:01:26;;;;;;;40.60;9.93;;;;;;;;;;4990429;28;20115;-76
2024/03/04 03:03:52;;;;;;;19.25;8.23;;;;;;;;;;4990457;28;20113;-76
2024/03/04 03:06:17;;;;;;;32.13;9.50;;;;;;;;;;4991146;28;20053;-76
2024/03/04 03:08:42;;;;;;;33.85;9.00;;;;;;;;;;4990960;28;20109;-76
2024/03/04 03:11:07;;;;;;;37.25;8.25;;;;;;;;;;4989003;28;20673;-76
2024/03/04 03:13:32;;;;;;;26.80;9.73;;;;;;;;;;4990526;28;20038;-76
2024/03/04 03:15:58;;;;;;;36.92;9.95;;;;;;;;;;4991356;28;20037;-76
2024/03/04 03:18:23;;;;;;;78.28;10.05;;;;;;;;;;4990846;28;20031;-76
2024/03/04 03:20:48;;;;;;;40.53;9.23;;;;;;;;;;4990575;28;20102;-76
2024/03/04 03:23:13;;;;;;;42.30;9.70;;;;;;;;;;4989722;28;20054;-76
2024/03/04 03:25:38;;;;;;;15.98;7.28;;;;;;;;;;4992787;28;20415;-76
2024/03/04 03:28:04;;;;;;;40.25;10.05;;;;;;;;;;4991348;28;20073;-77
2024/03/04 03:30:29;;;;;;;19.45;7.80;;;;;;;;;;4990496;28;20117;-76
2024/03/04 03:32:54;;;;;;;61.63;10.35;;;;;;;;;;4989905;28;20173;-76
2024/03/04 03:35:20;;;;;;;28.70;7.60;;;;;;;;;;4993468;28;20100;-76
2024/03/04 03:37:46;;;;;;;31.40;8.48;;;;;;;;;;4990510;28;20027;-77
2024/03/04 03:40:11;;;;;;;19.95;8.20;;;;;;;;;;4990752;28;20042;-76
2024/03/04 03:42:37;;;;;;;26.05;8.05;;;;;;;;;;4990314;28;20049;-77
2024/03/04 03:45:02;;;;;;;14.15;7.03;;;;;;;;;;4992446;28;20402;-77
2024/03/04 03:47:28;;;;;;;22.92;6.65;;;;;;;;;;4990804;28;20030;-76
2024/03/04 03:49:53;;;;;;;13.88;7.25;;;;;;;;;;4990244;28;20042;-77
2024/03/04 03:52:18;;;;;;;13.90;6.72;;;;;;;;;;4989962;28;20130;-76
2024/03/04 03:54:43;;;;;;;15.10;7.38;;;;;;;;;;4994776;28;20138;-76
2024/03/04 03:57:08;;;;;;;21.17;7.28;;;;;;;;;;4992571;28;20034;-76
2024/03/04 03:59:34;;;;;;;11.98;7.03;;;;;;;;;;4994723;28;20037;-77
2024/03/04 04:01:59;;;;;;;61.67;10.30;;;;;;;;;;4993435;28;20026;-77
2024/03/04 04:04:27;;;;;;;63.72;11.05;;;;;;;;;;4994040;28;20614;-77
2024/03/04 04:06:52;;;;;;;16.75;7.75;;;;;;;;;;4995058;28;20048;-76
2024/03/04 04:09:17;;;;;;;26.58;9.10;;;;;;;;;;4993798;28;20905;-77
2024/03/04 04:11:43;;;;;;;13.98;7.95;;;;;;;;;;4991352;28;20471;-76
2024/03/04 04:14:08;;;;;;;12.70;7.07;;;;;;;;;;4994232;28;20038;-77
2024/03/04 04:16:34;;;;;;;15.88;8.82;;;;;;;;;;4997061;28;20116;-76
2024/03/04 04:18:59;;;;;;;12.18;6.68;;;;;;;;;;4993142;28;20030;-76
2024/03/04 04:21:26;;;;;;;14.15;7.82;;;;;;;;;;4992976;28;20598;-77
2024/03/04 04:23:51;;;;;;;52.17;12.18;;;;;;;;;;4993178;28;20038;-77
2024/03/04 04:26:23;;;;;;;27.02;9.77;;;;;;;;;;4993509;28;20407;-77
2024/03/04 04:28:48;;;;;;;;;;;;;;;;;;4990487;28;20062;-77
2024/03/04 04:31:20;;;;;;;32.97;8.68;;;;;;;;;;4992625;28;19945;-77
2024/03/04 04:33:45;;;;;;;38.65;10.15;;;;;;;;;;4993056;28;20335;-77
2024/03/04 04:36:11;;;;;;;31.33;9.65;;;;;;;;;;4994385;28;21621;-77
2024/03/04 04:38:36;;;;;;;17.55;8.77;;;;;;;;;;4993323;28;20044;-77
2024/03/04 04:41:01;;;;;;;31.30;9.68;;;;;;;;;;4991442;28;20388;-77
2024/03/04 04:43:26;;;;;;;38.30;9.23;;;;;;;;;;4990275;28;20034;-77
2024/03/04 04:45:51;;;;;;;30.98;8.65;;;;;;;;;;4995006;28;20043;-77
2024/03/04 04:48:17;;;;;;;18.50;7.70;;;;;;;;;;4992734;28;20053;-77
2024/03/04 04:50:42;;;;;;;21.00;7.75;;;;;;;;;;4992791;28;20034;-77
2024/03/04 04:53:07;;;;;;;24.17;8.32;;;;;;;;;;4990776;28;20172;-77
2024/03/04 04:55:32;;;;;;;16.05;8.32;;;;;;;;;;4996411;28;20062;-77
2024/03/04 04:57:57;;;;;;;18.63;7.05;;;;;;;;;;4993389;28;20467;-77
2024/03/04 05:00:23;;;;;;;34.17;9.95;;;;;;;;;;4992581;28;20177;-77
2024/03/04 05:02:48;;;;;;;32.47;9.52;;;;;;;;;;4991645;28;20038;-77
2024/03/04 05:05:13;;;;;;;37.67;8.80;;;;;;;;;;4990240;28;20041;-78
2024/03/04 05:07:39;;;;;;;22.92;7.68;;;;;;;;;;4992542;28;20038;-77
2024/03/04 05:10:04;;;;;;;36.90;8.38;;;;;;;;;;4990948;28;20093;-77
2024/03/04 05:12:30;;;;;;;63.58;7.35;;;;;;;;;;4991594;28;20454;-78
2024/03/04 05:14:55;;;;;;;55.30;7.45;;;;;;;;;;4993535;28;20044;-78
2024/03/04 05:17:21;;;;;;;49.55;8.73;;;;;;;;;;4997657;28;20037;-78
2024/03/04 05:19:46;;;;;;;30.70;7.18;;;;;;;;;;4992223;28;20025;-77
2024/03/04 05:22:13;;;;;;;29.02;8.70;;;;;;;;;;4991639;28;20481;-78
2024/03/04 05:24:38;;;;;;;52.85;10.18;;;;;;;;;;4995835;28;20030;-77
2024/03/04 05:27:04;;;;;;;32.40;7.88;;;;;;;;;;4992544;28;20141;-77
2024/03/04 05:29:29;;;;;;;74.25;12.75;;;;;;;;;;4991628;28;20030;-77
2024/03/04 05:31:55;;;;;;;63.64;11.48;;;;;;;;;;4991354;28;20041;-77
2024/03/04 05:34:20;;;;;;;45.50;10.80;;;;;;;;;;4998284;28;20030;-77
2024/03/04 05:36:45;;;;;;;45.58;8.35;;;;;;;;;;4995547;28;20038;-77
2024/03/04 05:39:10;;;;;;;25.65;8.85;;;;;;;;;;4991750;28;20092;-77
2024/03/04 05:41:37;;;;;;;32.20;9.00;;;;;;;;;;4990978;28;20078;-77
2024/03/04 05:44:02;;;;;;;36.75;9.32;;;;;;;;;;4991429;28;20161;-78
2024/03/04 05:46:28;;;;;;;28.40;9.63;;;;;;;;;;4995289;28;20113;-78
2024/03/04 05:48:53;;;;;;;39.00;10.30;;;;;;;;;;4991862;28;20039;-80
2024/03/04 05:51:18;;;;;;;60.58;14.02;;;;;;;;;;4991108;28;20038;-78
2024/03/04 05:53:44;;;;;;;66.35;11.85;;;;;;;;;;4991153;28;20160;-77
2024/03/04 05:56:09;;;;;;;63.92;12.40;;;;;;;;;;4992136;28;20037;-77
2024/03/04 05:58:35;;;;;;;53.20;16.13;;;;;;;;;;4990143;28;20031;-77
2024/03/04 06:01:00;;;;;;;34.10;11.18;;;;;;;;;;4991629;28;20030;-77
2024/03/04 06:03:25;;;;;;;91.68;13.80;;;;;;;;;;4991100;28;20031;-77
2024/03/04 06:05:50;;;;;;;26.25;8.98;;;;;;;;;;4993529;28;20030;-78
2024/03/04 06:08:16;;;;;;;61.75;11.32;;;;;;;;;;4990458;28;20034;-77
2024/03/04 06:10:42;;;;;;;71.88;8.82;;;;;;;;;;4990001;28;20029;-77
2024/03/04 06:13:07;;;;;;;60.22;10.15;;;;;;;;;;4990611;28;20042;-77
2024/03/04 06:15:32;;;;;;;27.20;8.60;;;;;;;;;;4993583;28;20461;-77
2024/03/04 06:17:57;;;;;;;40.53;13.43;;;;;;;;;;4991271;28;20487;-77
2024/03/04 06:20:22;;;;;;;43.67;10.35;;;;;;;;;;4991204;28;20025;-77
2024/03/04 06:22:48;;;;;;;41.60;12.30;;;;;;;;;;4990961;28;20023;-77
2024/03/04 06:25:13;;;;;;;64.55;9.60;;;;;;;;;;4991156;28;20034;-77
2024/03/04 06:27:38;;;;;;;96.95;12.73;;;;;;;;;;4990914;28;20479;-78
2024/03/04 06:30:08;;;;;;;46.03;11.88;;;;;;;;;;4986343;28;20065;-77
2024/03/04 06:32:33;;;;;;;45.20;11.60;;;;;;;;;;4986459;28;20495;-77
2024/03/04 06:34:59;;;;;;;59.67;13.13;;;;;;;;;;4991052;28;20041;-77
2024/03/04 06:37:24;;;;;;;50.72;10.95;;;;;;;;;;4987880;28;20030;-77
2024/03/04 06:39:49;;;;;;;44.35;11.32;;;;;;;;;;4992382;28;20026;-77
2024/03/04 06:42:14;;;;;;;34.58;9.68;;;;;;;;;;4990542;28;20030;-78
2024/03/04 06:44:40;;;;;;;46.85;11.13;;;;;;;;;;4992160;28;20791;-77
2024/03/04 06:47:05;;;;;;;59.67;10.70;;;;;;;;;;4992664;28;20117;-78
2024/03/04 06:49:30;;;;;;;42.78;8.65;;;;;;;;;;4991249;28;20023;-78
2024/03/04 06:51:56;;;;;;;25.27;8.68;;;;;;;;;;4990834;28;20034;-77
2024/03/04 06:54:21;;;;;;;15.18;8.00;;;;;;;;;;4990641;28;20050;-78
2024/03/04 06:56:46;;;;;;;40.45;10.18;;;;;;;;;;4995282;28;20025;-77
2024/03/04 06:59:11;;;;;;;62.83;12.13;;;;;;;;;;4990440;28;20051;-77
2024/03/04 07:01:36;;;;;;;55.35;12.13;;;;;;;;;;4990274;28;20467;-77
2024/03/04 07:04:02;;;;;;;48.15;11.52;;;;;;;;;;4990323;28;20034;-77
2024/03/04 07:06:27;;;;;;;43.83;12.48;;;;;;;;;;4990881;28;20118;-78
2024/03/04 07:08:52;;;;;;;66.97;19.52;;;;;;;;;;4990892;28;20038;-78
2024/03/04 07:11:17;;;;;;;50.65;11.65;;;;;;;;;;4991979;28;20085;-77
2024/03/04 07:13:42;;;;;;;34.10;9.98;;;;;;;;;;4990481;28;20026;-78
2024/03/04 07:16:08;;;;;;;52.47;14.60;;;;;;;;;;4988101;28;20043;-77
2024/03/04 07:18:36;;;;;;;34.35;10.98;;;;;;;;;;4990680;28;20042;-78
2024/03/04 07:21:01;;;;;;;22.65;9.60;;;;;;;;;;4994147;28;20038;-77
2024/03/04 07:23:27;;;;;;;32.03;8.73;;;;;;;;;;4990075;28;20033;-78
2024/03/04 07:25:52;;;;;;;20.00;8.57;;;;;;;;;;4992084;28;20042;-77
2024/03/04 07:28:18;;;;;;;33.85;9.52;;;;;;;;;;4994103;28;20109;-77
2024/03/04 07:30:44;;;;;;;27.85;8.50;;;;;;;;;;4993912;28;20316;-78
2024/03/04 07:33:11;;;;;;;22.33;9.23;;;;;;;;;;4989352;28;20675;-77
2024/03/04 07:35:37;;;;;;;16.25;8.05;;;;;;;;;;4991410;28;20034;-77
2024/03/04 07:38:02;;;;;;;21.75;7.47;;;;;;;;;;4995055;28;20038;-77
2024/03/04 07:40:27;;;;;;;20.25;8.85;;;;;;;;;;4994249;28;20418;-77
2024/03/04 07:42:52;;;;;;;15.27;7.70;;;;;;;;;;4994862;28;20035;-77
2024/03/04 07:45:17;;;;;;;19.20;8.00;;;;;;;;;;4994133;28;20029;-77
2024/03/04 07:47:42;;;;;;;29.45;9.20;;;;;;;;;;4994354;28;20030;-77
2024/03/04 07:50:08;;;;;;;18.65;9.48;;;;;;;;;;4994086;28;20038;-78
2024/03/04 07:52:33;;;;;;;15.93;7.47;;;;;;;;;;4994510;28;20042;-77
2024/03/04 07:54:58;;;;;;;16.65;9.07;;;;;;;;;;4996308;28;20491;-77
2024/03/04 07:57:23;;;;;;;16.15;9.80;;;;;;;;;;4994054;28;20089;-77
2024/03/04 07:59:48;;;;;;;23.05;12.45;;;;;;;;;;4993611;28;20121;-77
2024/03/04 08:02:13;;;;;;;35.90;18.42;;;;;;;;;;4993562;28;20101;-77
2024/03/04 08:04:42;;;;;;;28.33;12.80;;;;;;;;;;4993613;28;20082;-78
2024/03/04 08:07:07;;;;;;;20.02;10.40;;;;;;;;;;4994927;28;20040;-77
2024/03/04 08:09:32;;;;;;;21.92;10.80;;;;;;;;;;4996016;28;20105;-78
2024/03/04 08:11:58;;;;;;;26.90;11.65;;;;;;;;;;4992630;28;20093;-78
2024/03/04 08:14:23;;;;;;;27.40;10.77;;;;;;;;;;4993337;28;20062;-77
2024/03/04 08:16:48;;;;;;;21.17;10.70;;;;;;;;;;4993415;28;20042;-78
2024/03/04 08:19:14;;;;;;;21.92;10.98;;;;;;;;;;4993442;28;20121;-77
2024/03/04 08:21:39;;;;;;;22.33;9.90;;;;;;;;;;4992964;28;20034;-77
2024/03/04 08:24:05;;;;;;;32.13;9.85;;;;;;;;;;4994380;28;20030;-77
2024/03/04 08:26:30;;;;;;;19.25;7.93;;;;;;;;;;4997497;28;20487;-77
2024/03/04 08:28:58;;;;;;;25.70;8.10;;;;;;;;;;4995848;28;20530;-78
2024/03/04 08:31:23;;;;;;;19.92;9.65;;;;;;;;;;4991048;28;20483;-77
2024/03/04 08:33:48;;;;;;;16.20;7.88;;;;;;;;;;4992266;28;20057;-77
2024/03/04 08:36:14;;;;;;;17.67;8.82;;;;;;;;;;4993695;28;20082;-77
2024/03/04 08:38:39;;;;;;;23.45;9.65;;;;;;;;;;4993082;28;20042;-77
2024/03/04 08:41:04;;;;;;;14.85;7.95;;;;;;;;;;4991504;28;20422;-78
2024/03/04 08:43:29;;;;;;;15.85;7.10;;;;;;;;;;4993104;28;20034;-77
2024/03/04 08:45:54;;;;;;;18.92;8.32;;;;;;;;;;4993624;28;20044;-77
2024/03/04 08:48:20;;;;;;;17.77;9.30;;;;;;;;;;4995073;28;20030;-77
2024/03/04 08:50:45;;;;;;;13.77;8.82;;;;;;;;;;5000735;28;20034;-77
2024/03/04 08:53:11;;;;;;;15.80;9.05;;;;;;;;;;4992524;28;20105;-77
2024/03/04 08:55:36;;;;;;;17.45;10.15;;;;;;;;;;4993350;28;20122;-77
2024/03/04 08:58:02;;;;;;;15.85;9.60;;;;;;;;;;4992952;28;20113;-77
2024/03/04 09:00:27;;;;;;;21.00;11.32;;;;;;;;;;4993461;28;20033;-77
2024/03/04 09:02:52;;;;;;;15.57;10.52;;;;;;;;;;4992546;28;20038;-77
2024/03/04 09:05:17;;;;;;;17.73;10.50;;;;;;;;;;4994000;28;20041;-77
2024/03/04 09:07:42;;;;;;;17.35;11.13;;;;;;;;;;4992489;28;20030;-78
2024/03/04 09:10:08;;;;;;;16.65;10.90;;;;;;;;;;4992621;28;20495;-77
2024/03/04 09:12:33;;;;;;;17.77;12.05;;;;;;;;;;4992519;28;20040;-77
2024/03/04 09:14:58;;;;;;;19.00;11.68;;;;;;;;;;4992552;28;20065;-77
2024/03/04 09:17:23;;;;;;;18.83;11.73;;;;;;;;;;4994112;28;20121;-77
2024/03/04 09:19:48;;;;;;;17.67;11.68;;;;;;;;;;4994498;28;20129;-77
2024/03/04 09:22:14;;;;;;;19.55;12.23;;;;;;;;;;4990130;28;20461;-77
2024/03/04 09:24:45;;;;;;;19.33;12.40;;;;;;;;;;4991693;28;20494;-77
2024/03/04 09:27:11;;;;;;;16.38;10.88;;;;;;;;;;4989232;28;20030;-77
2024/03/04 09:29:36;;;;;;;16.00;10.95;;;;;;;;;;4996367;28;20089;-77
2024/03/04 09:32:01;;;;;;;19.23;12.60;;;;;;;;;;4998609;28;20116;-77
2024/03/04 09:34:26;;;;;;;20.60;13.03;;;;;;;;;;4991884;28;20026;-78
2024/03/04 09:36:51;;;;;;;18.53;11.50;;;;;;;;;;4995112;28;20379;-77
2024/03/04 09:39:16;;;;;;;19.00;11.50;;;;;;;;;;4992000;28;20285;-77
2024/03/04 09:41:42;;;;;;;16.13;10.93;;;;;;;;;;4990319;28;20033;-78
2024/03/04 09:44:07;;;;;;;19.73;12.80;;;;;;;;;;4992085;28;20062;-77
2024/03/04 09:46:35;;;;;;;19.67;13.38;;;;;;;;;;4991995;28;20659;-77
2024/03/04 09:49:01;;;;;;;22.58;14.13;;;;;;;;;;4990406;28;20034;-78
2024/03/04 09:51:27;;;;;;;23.15;15.40;;;;;;;;;;4990881;28;20076;-78
2024/03/04 09:53:53;;;;;;;21.42;14.70;;;;;;;;;;4991580;28;20034;-78
2024/03/04 09:56:18;;;;;;;23.52;15.75;;;;;;;;;;4993389;28;20136;-78
2024/03/04 09:58:44;;;;;;;21.73;14.77;;;;;;;;;;4991569;28;20109;-78
2024/03/04 10:01:09;;;;;;;23.67;17.38;;;;;;;;;;4994036;28;20117;-78
2024/03/04 10:03:35;;;;;;;24.35;16.67;;;;;;;;;;4990461;28;20027;-78
2024/03/04 10:06:02;;;;;;;20.73;14.45;;;;;;;;;;4990608;28;20038;-77
2024/03/04 10:08:27;;;;;;;19.58;14.65;;;;;;;;;;4990012;28;20097;-78
2024/03/04 10:10:52;;;;;;;23.73;14.93;;;;;;;;;;4991665;28;20475;-77
2024/03/04 10:13:18;;;;;;;23.77;16.25;;;;;;;;;;4994419;28;20031;-78
2024/03/04 10:15:45;;;;;;;23.33;15.98;;;;;;;;;;4992778;28;20045;-78
2024/03/04 10:18:10;;;;;;;25.60;13.93;;;;;;;;;;4991332;28;20121;-78
2024/03/04 10:20:36;;;;;;;24.60;17.67;;;;;;;;;;4993377;28;20117;-78
2024/03/04 10:23:02;;;;;;;24.50;18.35;;;;;;;;;;4990895;28;20069;-77
2024/03/04 10:25:28;;;;;;;21.38;15.13;;;;;;;;;;4991175;28;20034;-78
2024/03/04 10:27:53;;;;;;;24.23;16.77;;;;;;;;;;4991396;28;20121;-77
2024/03/04 10:30:19;;;;;;;25.70;16.77;;;;;;;;;;4991048;28;20057;-78
2024/03/04 10:32:48;;;;;;;23.13;15.93;;;;;;;;;;4990851;28;20121;-78
2024/03/04 10:35:15;;;;;;;23.15;15.65;;;;;;;;;;4994223;28;20180;-78
2024/03/04 10:37:40;;;;;;;23.25;16.75;;;;;;;;;;4993795;28;20038;-77
2024/03/04 10:40:09;;;;;;;25.98;17.77;;;;;;;;;;4989291;28;20042;-78
2024/03/04 10:42:34;;;;;;;25.58;17.50;;;;;;;;;;4989551;28;20034;-77
2024/03/04 10:44:59;;;;;;;26.75;16.20;;;;;;;;;;4990266;28;20041;-78
2024/03/04 10:47:26;;;;;;;23.88;18.25;;;;;;;;;;4985131;28;20397;-77
2024/03/04 10:49:51;;;;;;;24.83;18.02;;;;;;;;;;4990219;28;20479;-78
2024/03/04 10:52:16;;;;;;;24.30;17.85;;;;;;;;;;4990417;28;20045;-77
2024/03/04 10:54:42;;;;;;;26.65;18.90;;;;;;;;;;4990346;28;20035;-77
2024/03/04 10:57:10;;;;;;;24.35;18.15;;;;;;;;;;4993884;28;20171;-78
2024/03/04 10:59:37;;;;;;;28.02;19.00;;;;;;;;;;4992190;28;20041;-78
2024/03/04 11:02:13;;;;;;;28.35;19.63;;;;;;;;;;4990630;28;20146;-78
2024/03/04 11:04:39;;;;;;;29.63;20.67;;;;;;;;;;4991618;28;20035;-77
2024/03/04 11:07:09;;;;;;;32.80;22.65;;;;;;;;;;4988645;28;20068;-78
2024/03/04 11:09:35;;;;;;;26.67;18.77;;;;;;;;;;4993732;28;20061;-77
2024/03/04 11:12:01;;;;;;;28.80;20.02;;;;;;;;;;4991907;28;20035;-78
2024/03/04 11:14:33;;;;;;;32.17;20.58;;;;;;;;;;4991107;28;20031;-77
2024/03/04 11:16:59;;;;;;;28.95;20.05;;;;;;;;;;4990787;28;20037;-77
2024/03/04 11:19:35;;;;;;;28.45;20.10;;;;;;;;;;4990650;28;20026;-78
2024/03/04 11:22:01;;;;;;;27.20;21.25;;;;;;;;;;4990296;28;20057;-78
2024/03/04 11:24:27;;;;;;;27.65;19.73;;;;;;;;;;4993362;28;20038;-77
2024/03/04 11:26:53;;;;;;;29.67;20.92;;;;;;;;;;4988448;28;20042;-77
2024/03/04 11:29:19;;;;;;;28.55;19.70;;;;;;;;;;4990463;28;20085;-77
2024/03/04 11:31:57;;;;;;;32.75;23.05;;;;;;;;;;4989965;28;20457;-77
2024/03/04 11:34:22;;;;;;;31.08;22.25;;;;;;;;;;4990232;28;20111;-77
2024/03/04 11:36:51;;;;;;;31.35;23.45;;;;;;;;;;4993540;28;20642;-77
2024/03/04 11:39:20;;;;;;;34.55;23.58;;;;;;;;;;4993906;28;20484;-77
2024/03/04 11:41:49;;;;;;;32.20;22.38;;;;;;;;;;4993693;28;20510;-77
2024/03/04 11:44:23;;;;;;;36.38;25.52;;;;;;;;;;4990047;28;20038;-77
2024/03/04 11:46:48;;;;;;;35.85;23.20;;;;;;;;;;4989071;28;20038;-77
2024/03/04 11:49:20;;;;;;;34.97;24.67;;;;;;;;;;4989959;28;20038;-77
2024/03/04 11:52:06;;;;;;;36.80;24.73;;;;;;;;;;4972385;28;20104;-77
2024/03/04 11:54:34;;;;;;;38.42;26.42;;;;;;;;;;4967588;28;20042;-77
2024/03/04 11:57:03;;;;;;;33.90;23.52;;;;;;;;;;4992123;28;20034;-78
2024/03/04 11:59:29;;;;;;;37.17;23.60;;;;;;;;;;4988494;28;20026;-76
2024/03/04 12:01:54;;;;;;;42.60;26.55;;;;;;;;;;4990076;28;20046;-77
2024/03/04 12:04:19;;;;;;;41.03;25.27;;;;;;;;;;4990836;28;20045;-77
2024/03/04 12:06:48;;;;;;;40.67;27.50;;;;;;;;;;4992035;28;20369;-78
2024/03/04 12:09:16;;;;;;;41.00;25.33;;;;;;;;;;4990146;28;20442;-77
2024/03/04 12:11:41;;;;;;;42.72;29.08;;;;;;;;;;4989312;28;20026;-77
2024/03/04 12:14:07;;;;;;;41.63;26.52;;;;;;;;;;4991683;28;20102;-77
2024/03/04 12:16:33;;;;;;;45.25;28.85;;;;;;;;;;4995510;28;20490;-77
2024/03/04 12:18:58;;;;;;;42.85;28.48;;;;;;;;;;4993757;28;20027;-78
2024/03/04 12:21:24;;;;;;;40.60;26.92;;;;;;;;;;4993103;28;20036;-77
2024/03/04 12:23:49;;;;;;;48.65;32.20;;;;;;;;;;4993421;28;20121;-77
2024/03/04 12:26:14;;;;;;;50.22;30.15;;;;;;;;;;4997927;28;20066;-77
2024/03/04 12:28:40;;;;;;;47.42;31.02;;;;;;;;;;4993795;28;20041;-77
2024/03/04 12:31:09;;;;;;;43.00;27.80;;;;;;;;;;4991758;28;20057;-78
2024/03/04 12:33:34;;;;;;;45.00;30.00;;;;;;;;;;4992063;28;20097;-77
2024/03/04 12:36:00;;;;;;;52.83;35.03;;;;;;;;;;4994091;28;20807;-78
2024/03/04 12:38:28;;;;;;;51.95;33.45;;;;;;;;;;4994438;28;20037;-77
2024/03/04 12:40:53;;;;;;;48.15;29.58;;;;;;;;;;4993079;28;20088;-77
2024/03/04 12:43:36;;;;;;;50.35;32.83;;;;;;;;;;4992577;28;20415;-77
2024/03/04 12:46:02;;;;;;;50.05;32.05;;;;;;;;;;4994580;28;20049;-79
2024/03/04 12:48:27;;;;;;;53.67;34.03;;;;;;;;;;4993767;28;20030;-77
2024/03/04 12:50:52;;;;;;;47.60;30.60;;;;;;;;;;4994307;28;20030;-77
2024/03/04 12:53:20;;;;;;;43.73;29.47;;;;;;;;;;4991234;28;20281;-77
2024/03/04 12:55:47;;;;;;;52.05;31.27;;;;;;;;;;4997608;28;20297;-77
2024/03/04 12:58:12;;;;;;;48.75;30.65;;;;;;;;;;4993300;28;20053;-78
2024/03/04 13:00:37;;;;;;;50.90;31.97;;;;;;;;;;4994149;28;20475;-77
2024/03/04 13:03:03;;;;;;;46.27;30.73;;;;;;;;;;4992245;28;20289;-77
2024/03/04 13:05:28;;;;;;;51.30;33.08;;;;;;;;;;4993762;28;20288;-77
2024/03/04 13:07:54;;;;;;;49.90;31.87;;;;;;;;;;4995652;28;20044;-77
2024/03/04 13:10:19;;;;;;;51.65;33.90;;;;;;;;;;4989847;28;20293;-77
2024/03/04 13:12:47;;;;;;;52.50;32.40;;;;;;;;;;4989932;28;20031;-77
2024/03/04 13:15:12;;;;;;;51.53;33.83;;;;;;;;;;4992174;28;20117;-77
2024/03/04 13:17:39;;;;;;;51.60;33.78;;;;;;;;;;4994571;28;20443;-77
2024/03/04 13:20:08;;;;;;;45.90;29.65;;;;;;;;;;4986273;28;20049;-77
2024/03/04 13:22:34;;;;;;;52.10;33.15;;;;;;;;;;4987220;28;20023;-77
2024/03/04 13:24:59;;;;;;;52.70;35.70;;;;;;;;;;4989704;28;20032;-77
2024/03/04 13:27:25;;;;;;;46.20;30.27;;;;;;;;;;4992390;28;20031;-77
2024/03/04 13:29:50;;;;;;;44.13;28.92;;;;;;;;;;4993422;28;20285;-77
2024/03/04 13:32:15;;;;;;;44.60;28.33;;;;;;;;;;4991727;28;20034;-77
2024/03/04 13:34:43;;;;;;;45.33;30.27;;;;;;;;;;4992079;28;20101;-77
2024/03/04 13:37:09;;;;;;;50.78;29.77;;;;;;;;;;4994958;28;20292;-77
2024/03/04 13:39:34;;;;;;;39.45;26.65;;;;;;;;;;4992358;28;20030;-77
2024/03/04 13:41:59;;;;;;;39.75;26.40;;;;;;;;;;4991652;28;20032;-77
2024/03/04 13:44:24;;;;;;;43.15;28.60;;;;;;;;;;4991773;28;20026;-77
2024/03/04 13:46:49;;;;;;;41.80;26.60;;;;;;;;;;5000397;28;20034;-77
2024/03/04 13:49:15;;;;;;;46.85;32.60;;;;;;;;;;4993842;28;20269;-77
2024/03/04 13:51:40;;;;;;;46.03;32.00;;;;;;;;;;5003369;28;20033;-77
2024/03/04 13:54:05;;;;;;;40.73;27.50;;;;;;;;;;4991617;28;20081;-77
2024/03/04 13:56:33;;;;;;;38.80;27.52;;;;;;;;;;4994600;28;20281;-77
2024/03/04 13:58:58;;;;;;;40.90;28.52;;;;;;;;;;4986831;28;20495;-77
2024/03/04 14:01:23;;;;;;;39.22;25.00;;;;;;;;;;4991083;28;20033;-77
2024/03/04 14:03:48;;;;;;;39.80;26.92;;;;;;;;;;4991672;28;20118;-77
2024/03/04 14:06:14;;;;;;;35.65;24.88;;;;;;;;;;4993474;28;20510;-78
2024/03/04 14:08:40;;;;;;;38.10;26.13;;;;;;;;;;4994939;28;20034;-77
2024/03/04 14:11:05;;;;;;;39.30;26.10;;;;;;;;;;4990970;28;20041;-78
2024/03/04 14:13:30;;;;;;;39.55;26.02;;;;;;;;;;4991801;28;20492;-77
2024/03/04 14:15:56;;;;;;;38.10;26.48;;;;;;;;;;4995403;28;20021;-77